sensor_id;sensor_type;location;lat;lon;timestamp;temperature;humidity
21722;DHT22;11023;48.274;7.794;2022-09-13T00:01:42;15.20;99.90
21722;DHT22;11023;48.274;7.794;2022-09-13T00:04:08;15.20;99.90
21722;DHT22;11023;48.274;7.794;2022-09-13T00:06:33;15.20;99.90
21722;DHT22;11023;48.274;7.794;2022-09-13T00:08:59;15.20;99.90
21722;DHT22;11023;48.274;7.794;2022-09-13T00:11:28;15.10;99.90
21722;DHT22;11023;48.274;7.794;2022-09-13T00:13:55;15.10;99.90
21722;DHT22;11023;48.274;7.794;2022-09-13T00:16:22;15.10;99.90
21722;DHT22;11023;48.274;7.794;2022-09-13T00:18:49;15.10;99.90
21722;DHT22;11023;48.274;7.794;2022-09-13T00:21:17;15.10;99.90
21722;DHT22;11023;48.274;7.794;2022-09-13T00:23:44;15.10;99.90
21722;DHT22;11023;48.274;7.794;2022-09-13T00:26:14;15.10;99.90
21722;DHT22;11023;48.274;7.794;2022-09-13T00:28:40;15.10;99.90
21722;DHT22;11023;48.274;7.794;2022-09-13T00:31:07;15.10;99.90
21722;DHT22;11023;48.274;7.794;2022-09-13T00:33:33;15.10;99.90
21722;DHT22;11023;48.274;7.794;2022-09-13T00:36:08;15.10;99.90
21722;DHT22;11023;48.274;7.794;2022-09-13T00:38:35;15.10;99.90
21722;DHT22;11023;48.274;7.794;2022-09-13T00:41:06;15.00;99.90
21722;DHT22;11023;48.274;7.794;2022-09-13T00:43:43;15.00;99.90
21722;DHT22;11023;48.274;7.794;2022-09-13T00:46:16;15.00;99.90
21722;DHT22;11023;48.274;7.794;2022-09-13T00:48:45;14.90;99.90
21722;DHT22;11023;48.274;7.794;2022-09-13T00:51:12;14.90;99.90
21722;DHT22;11023;48.274;7.794;2022-09-13T00:53:42;14.80;99.90
21722;DHT22;11023;48.274;7.794;2022-09-13T00:58:43;14.70;99.90
21722;DHT22;11023;48.274;7.794;2022-09-13T01:01:11;14.70;99.90
21722;DHT22;11023;48.274;7.794;2022-09-13T01:03:39;14.60;99.90
21722;DHT22;11023;48.274;7.794;2022-09-13T01:06:10;14.50;99.90
21722;DHT22;11023;48.274;7.794;2022-09-13T01:08:38;14.50;99.90
21722;DHT22;11023;48.274;7.794;2022-09-13T01:11:07;14.40;99.90
21722;DHT22;11023;48.274;7.794;2022-09-13T01:13:38;14.40;99.90
21722;DHT22;11023;48.274;7.794;2022-09-13T01:16:04;14.30;99.90
21722;DHT22;11023;48.274;7.794;2022-09-13T01:18:30;14.20;99.90
21722;DHT22;11023;48.274;7.794;2022-09-13T01:38:30;14.00;99.90
21722;DHT22;11023;48.274;7.794;2022-09-13T01:40:58;14.10;99.90
21722;DHT22;11023;48.274;7.794;2022-09-13T01:46:45;14.10;99.90
21722;DHT22;11023;48.274;7.794;2022-09-13T01:54:44;14.10;99.90
21722;DHT22;11023;48.274;7.794;2022-09-13T01:59:59;14.10;99.90
21722;DHT22;11023;48.274;7.794;2022-09-13T02:05:01;14.10;99.90
21722;DHT22;11023;48.274;7.794;2022-09-13T02:07:39;14.00;99.90
21722;DHT22;11023;48.274;7.794;2022-09-13T02:10:16;14.00;99.90
21722;DHT22;11023;48.274;7.794;2022-09-13T02:12:47;14.00;99.90
21722;DHT22;11023;48.274;7.794;2022-09-13T02:15:17;14.00;99.90
21722;DHT22;11023;48.274;7.794;2022-09-13T02:17:53;13.90;99.90
21722;DHT22;11023;48.274;7.794;2022-09-13T02:20:26;13.90;99.90
21722;DHT22;11023;48.274;7.794;2022-09-13T02:22:56;14.00;99.90
21722;DHT22;11023;48.274;7.794;2022-09-13T02:25:25;13.90;99.90
21722;DHT22;11023;48.274;7.794;2022-09-13T02:27:54;13.90;99.90
21722;DHT22;11023;48.274;7.794;2022-09-13T02:30:23;13.80;99.90
21722;DHT22;11023;48.274;7.794;2022-09-13T02:34:03;13.80;99.90
21722;DHT22;11023;48.274;7.794;2022-09-13T02:36:11;13.80;99.90
21722;DHT22;11023;48.274;7.794;2022-09-13T02:38:59;13.80;99.90
21722;DHT22;11023;48.274;7.794;2022-09-13T02:41:34;13.80;99.90
21722;DHT22;11023;48.274;7.794;2022-09-13T02:44:14;13.80;99.90
21722;DHT22;11023;48.274;7.794;2022-09-13T02:52:07;13.80;99.90
21722;DHT22;11023;48.274;7.794;2022-09-13T02:54:42;13.70;99.90
21722;DHT22;11023;48.274;7.794;2022-09-13T02:57:30;13.80;99.90
21722;DHT22;11023;48.274;7.794;2022-09-13T02:59:58;13.80;99.90
21722;DHT22;11023;48.274;7.794;2022-09-13T03:02:30;13.70;99.90
21722;DHT22;11023;48.274;7.794;2022-09-13T03:04:58;13.80;99.90
21722;DHT22;11023;48.274;7.794;2022-09-13T03:07:25;13.80;99.90
21722;DHT22;11023;48.274;7.794;2022-09-13T03:09:57;13.80;99.90
21722;DHT22;11023;48.274;7.794;2022-09-13T03:15:50;13.90;99.90
21722;DHT22;11023;48.274;7.794;2022-09-13T03:21:15;13.80;99.90
21722;DHT22;11023;48.274;7.794;2022-09-13T03:23:55;13.90;99.90
21722;DHT22;11023;48.274;7.794;2022-09-13T03:29:23;13.80;99.90
21722;DHT22;11023;48.274;7.794;2022-09-13T03:34:58;13.70;99.90
21722;DHT22;11023;48.274;7.794;2022-09-13T03:37:54;13.80;99.90
21722;DHT22;11023;48.274;7.794;2022-09-13T03:43:28;13.70;99.90
21722;DHT22;11023;48.274;7.794;2022-09-13T03:45:57;13.80;99.90
21722;DHT22;11023;48.274;7.794;2022-09-13T03:48:24;13.80;99.90
21722;DHT22;11023;48.274;7.794;2022-09-13T03:50:52;13.80;99.90
21722;DHT22;11023;48.274;7.794;2022-09-13T03:53:25;13.80;99.90
21722;DHT22;11023;48.274;7.794;2022-09-13T03:55:51;13.70;99.90
21722;DHT22;11023;48.274;7.794;2022-09-13T03:58:19;13.70;99.90
21722;DHT22;11023;48.274;7.794;2022-09-13T04:00:45;13.70;99.90
21722;DHT22;11023;48.274;7.794;2022-09-13T04:03:13;13.80;99.90
21722;DHT22;11023;48.274;7.794;2022-09-13T04:05:39;13.80;99.90
21722;DHT22;11023;48.274;7.794;2022-09-13T04:08:06;13.70;99.90
21722;DHT22;11023;48.274;7.794;2022-09-13T04:10:33;13.70;99.90
21722;DHT22;11023;48.274;7.794;2022-09-13T04:13:00;13.70;99.90
21722;DHT22;11023;48.274;7.794;2022-09-13T04:15:26;13.70;99.90
21722;DHT22;11023;48.274;7.794;2022-09-13T04:17:52;13.70;99.90
21722;DHT22;11023;48.274;7.794;2022-09-13T04:20:18;13.70;99.90
21722;DHT22;11023;48.274;7.794;2022-09-13T04:22:50;13.60;99.90
21722;DHT22;11023;48.274;7.794;2022-09-13T04:25:16;13.50;99.90
21722;DHT22;11023;48.274;7.794;2022-09-13T04:27:42;13.50;99.90
21722;DHT22;11023;48.274;7.794;2022-09-13T04:30:08;13.50;99.90
21722;DHT22;11023;48.274;7.794;2022-09-13T04:32:34;13.50;99.90
21722;DHT22;11023;48.274;7.794;2022-09-13T04:34:59;13.60;99.90
21722;DHT22;11023;48.274;7.794;2022-09-13T04:37:25;13.50;99.90
21722;DHT22;11023;48.274;7.794;2022-09-13T04:39:51;13.50;99.90
21722;DHT22;11023;48.274;7.794;2022-09-13T04:42:17;13.50;99.90
21722;DHT22;11023;48.274;7.794;2022-09-13T04:44:44;13.50;99.90
21722;DHT22;11023;48.274;7.794;2022-09-13T04:47:09;13.50;99.90
21722;DHT22;11023;48.274;7.794;2022-09-13T04:49:35;13.50;99.90
21722;DHT22;11023;48.274;7.794;2022-09-13T04:52:01;13.50;99.90
21722;DHT22;11023;48.274;7.794;2022-09-13T04:54:26;13.40;99.90
21722;DHT22;11023;48.274;7.794;2022-09-13T04:56:52;13.30;99.90
21722;DHT22;11023;48.274;7.794;2022-09-13T04:59:19;13.20;99.90
21722;DHT22;11023;48.274;7.794;2022-09-13T05:01:44;13.10;99.90
21722;DHT22;11023;48.274;7.794;2022-09-13T05:04:10;13.10;99.90
21722;DHT22;11023;48.274;7.794;2022-09-13T05:06:36;13.00;99.90
21722;DHT22;11023;48.274;7.794;2022-09-13T05:09:02;13.10;99.90
21722;DHT22;11023;48.274;7.794;2022-09-13T05:11:28;13.00;99.90
21722;DHT22;11023;48.274;7.794;2022-09-13T05:13:58;13.00;99.90
21722;DHT22;11023;48.274;7.794;2022-09-13T05:16:27;13.00;99.90
21722;DHT22;11023;48.274;7.794;2022-09-13T05:18:53;13.00;99.90
21722;DHT22;11023;48.274;7.794;2022-09-13T05:21:19;12.90;99.90
21722;DHT22;11023;48.274;7.794;2022-09-13T05:23:50;13.00;99.90
21722;DHT22;11023;48.274;7.794;2022-09-13T05:26:16;13.00;99.90
21722;DHT22;11023;48.274;7.794;2022-09-13T05:28:42;13.00;99.90
21722;DHT22;11023;48.274;7.794;2022-09-13T05:31:19;13.00;99.90
21722;DHT22;11023;48.274;7.794;2022-09-13T05:33:47;13.00;99.90
21722;DHT22;11023;48.274;7.794;2022-09-13T05:36:13;13.00;99.90
21722;DHT22;11023;48.274;7.794;2022-09-13T05:38:39;13.00;99.90
21722;DHT22;11023;48.274;7.794;2022-09-13T05:41:05;13.00;99.90
21722;DHT22;11023;48.274;7.794;2022-09-13T05:43:33;13.00;99.90
21722;DHT22;11023;48.274;7.794;2022-09-13T05:46:01;13.10;99.90
21722;DHT22;11023;48.274;7.794;2022-09-13T05:48:28;13.10;99.90
21722;DHT22;11023;48.274;7.794;2022-09-13T05:50:54;13.20;99.90
21722;DHT22;11023;48.274;7.794;2022-09-13T05:53:19;13.30;99.90
21722;DHT22;11023;48.274;7.794;2022-09-13T05:55:45;13.40;99.90
21722;DHT22;11023;48.274;7.794;2022-09-13T05:58:11;13.50;99.90
21722;DHT22;11023;48.274;7.794;2022-09-13T06:00:36;13.60;99.90
21722;DHT22;11023;48.274;7.794;2022-09-13T06:03:02;13.60;99.90
21722;DHT22;11023;48.274;7.794;2022-09-13T06:05:28;13.80;99.90
21722;DHT22;11023;48.274;7.794;2022-09-13T06:07:53;13.90;99.90
21722;DHT22;11023;48.274;7.794;2022-09-13T06:10:19;14.00;99.90
21722;DHT22;11023;48.274;7.794;2022-09-13T06:12:45;14.10;99.90
21722;DHT22;11023;48.274;7.794;2022-09-13T06:15:11;14.10;99.90
21722;DHT22;11023;48.274;7.794;2022-09-13T06:17:37;14.10;99.90
21722;DHT22;11023;48.274;7.794;2022-09-13T06:20:03;14.20;99.90
21722;DHT22;11023;48.274;7.794;2022-09-13T06:22:29;14.30;99.90
21722;DHT22;11023;48.274;7.794;2022-09-13T06:24:58;14.40;99.90
21722;DHT22;11023;48.274;7.794;2022-09-13T06:27:24;14.50;99.90
21722;DHT22;11023;48.274;7.794;2022-09-13T06:29:50;14.50;99.90
21722;DHT22;11023;48.274;7.794;2022-09-13T06:32:15;14.60;99.90
21722;DHT22;11023;48.274;7.794;2022-09-13T06:34:41;14.60;99.90
21722;DHT22;11023;48.274;7.794;2022-09-13T06:37:07;14.60;99.90
21722;DHT22;11023;48.274;7.794;2022-09-13T06:39:32;14.70;99.90
21722;DHT22;11023;48.274;7.794;2022-09-13T06:41:59;14.80;99.90
21722;DHT22;11023;48.274;7.794;2022-09-13T06:44:24;14.80;99.90
21722;DHT22;11023;48.274;7.794;2022-09-13T06:46:50;15.00;99.90
21722;DHT22;11023;48.274;7.794;2022-09-13T06:49:16;15.10;99.90
21722;DHT22;11023;48.274;7.794;2022-09-13T06:51:42;15.10;99.90
21722;DHT22;11023;48.274;7.794;2022-09-13T06:54:07;15.20;99.90
21722;DHT22;11023;48.274;7.794;2022-09-13T06:56:35;15.40;99.90
21722;DHT22;11023;48.274;7.794;2022-09-13T06:59:05;15.50;99.90
21722;DHT22;11023;48.274;7.794;2022-09-13T07:01:36;15.60;99.90
21722;DHT22;11023;48.274;7.794;2022-09-13T07:04:11;15.70;99.90
21722;DHT22;11023;48.274;7.794;2022-09-13T07:06:42;15.80;99.90
21722;DHT22;11023;48.274;7.794;2022-09-13T07:09:11;15.90;99.90
21722;DHT22;11023;48.274;7.794;2022-09-13T07:11:38;16.00;99.90
21722;DHT22;11023;48.274;7.794;2022-09-13T07:14:05;16.10;99.90
21722;DHT22;11023;48.274;7.794;2022-09-13T07:16:34;16.20;99.90
21722;DHT22;11023;48.274;7.794;2022-09-13T07:19:02;16.30;99.90
21722;DHT22;11023;48.274;7.794;2022-09-13T07:21:30;16.40;99.90
21722;DHT22;11023;48.274;7.794;2022-09-13T07:23:57;16.50;99.90
21722;DHT22;11023;48.274;7.794;2022-09-13T07:26:24;16.60;99.90
21722;DHT22;11023;48.274;7.794;2022-09-13T07:28:54;16.60;99.90
21722;DHT22;11023;48.274;7.794;2022-09-13T07:31:24;16.70;99.90
21722;DHT22;11023;48.274;7.794;2022-09-13T07:34:13;16.80;99.90
21722;DHT22;11023;48.274;7.794;2022-09-13T07:36:39;16.80;99.90
21722;DHT22;11023;48.274;7.794;2022-09-13T07:39:05;16.90;99.90
21722;DHT22;11023;48.274;7.794;2022-09-13T07:41:32;17.00;99.90
21722;DHT22;11023;48.274;7.794;2022-09-13T07:43:58;17.10;99.90
21722;DHT22;11023;48.274;7.794;2022-09-13T07:46:28;17.20;99.90
21722;DHT22;11023;48.274;7.794;2022-09-13T07:48:58;17.30;99.90
21722;DHT22;11023;48.274;7.794;2022-09-13T07:51:26;17.50;99.90
21722;DHT22;11023;48.274;7.794;2022-09-13T07:53:56;17.60;99.90
21722;DHT22;11023;48.274;7.794;2022-09-13T07:56:25;17.70;99.90
21722;DHT22;11023;48.274;7.794;2022-09-13T07:58:52;17.80;99.90
21722;DHT22;11023;48.274;7.794;2022-09-13T08:01:27;17.90;99.90
21722;DHT22;11023;48.274;7.794;2022-09-13T08:03:56;18.00;99.90
21722;DHT22;11023;48.274;7.794;2022-09-13T08:06:23;18.10;99.90
21722;DHT22;11023;48.274;7.794;2022-09-13T08:08:49;18.20;99.90
21722;DHT22;11023;48.274;7.794;2022-09-13T08:11:20;18.30;99.90
21722;DHT22;11023;48.274;7.794;2022-09-13T08:13:47;18.50;99.90
21722;DHT22;11023;48.274;7.794;2022-09-13T08:16:13;18.50;99.90
21722;DHT22;11023;48.274;7.794;2022-09-13T08:18:43;18.60;99.90
21722;DHT22;11023;48.274;7.794;2022-09-13T08:21:10;18.80;99.90
21722;DHT22;11023;48.274;7.794;2022-09-13T08:23:35;18.80;99.90
21722;DHT22;11023;48.274;7.794;2022-09-13T08:26:02;18.90;99.90
21722;DHT22;11023;48.274;7.794;2022-09-13T08:28:28;19.10;99.90
21722;DHT22;11023;48.274;7.794;2022-09-13T08:31:01;19.20;99.90
21722;DHT22;11023;48.274;7.794;2022-09-13T08:33:27;19.40;99.90
21722;DHT22;11023;48.274;7.794;2022-09-13T08:35:52;19.50;99.90
21722;DHT22;11023;48.274;7.794;2022-09-13T08:38:19;19.60;99.90
21722;DHT22;11023;48.274;7.794;2022-09-13T08:41:46;19.80;99.90
21722;DHT22;11023;48.274;7.794;2022-09-13T08:44:33;20.00;99.90
21722;DHT22;11023;48.274;7.794;2022-09-13T08:49:46;20.30;99.90
21722;DHT22;11023;48.274;7.794;2022-09-13T08:55:07;20.60;99.90
21722;DHT22;11023;48.274;7.794;2022-09-13T08:57:48;20.70;99.90
21722;DHT22;11023;48.274;7.794;2022-09-13T09:00:35;20.90;99.90
21722;DHT22;11023;48.274;7.794;2022-09-13T09:03:36;21.10;99.90
21722;DHT22;11023;48.274;7.794;2022-09-13T09:06:11;21.20;99.90
21722;DHT22;11023;48.274;7.794;2022-09-13T09:11:19;21.40;99.90
21722;DHT22;11023;48.274;7.794;2022-09-13T09:14:07;21.50;99.90
21722;DHT22;11023;48.274;7.794;2022-09-13T09:16:38;21.70;99.90
21722;DHT22;11023;48.274;7.794;2022-09-13T09:19:25;21.70;99.90
21722;DHT22;11023;48.274;7.794;2022-09-13T09:21:54;21.90;99.90
21722;DHT22;11023;48.274;7.794;2022-09-13T09:24:24;22.00;99.90
21722;DHT22;11023;48.274;7.794;2022-09-13T09:26:56;22.10;99.90
21722;DHT22;11023;48.274;7.794;2022-09-13T09:29:24;22.20;99.90
21722;DHT22;11023;48.274;7.794;2022-09-13T09:35:37;22.40;99.90
21722;DHT22;11023;48.274;7.794;2022-09-13T09:37:49;22.50;99.90
21722;DHT22;11023;48.274;7.794;2022-09-13T09:40:18;22.60;99.90
21722;DHT22;11023;48.274;7.794;2022-09-13T09:42:48;22.80;99.90
21722;DHT22;11023;48.274;7.794;2022-09-13T09:45:34;22.90;99.90
21722;DHT22;11023;48.274;7.794;2022-09-13T09:48:07;23.10;99.90
21722;DHT22;11023;48.274;7.794;2022-09-13T09:50:42;23.30;99.90
21722;DHT22;11023;48.274;7.794;2022-09-13T09:53:26;23.60;99.90
21722;DHT22;11023;48.274;7.794;2022-09-13T09:56:11;23.90;99.90
21722;DHT22;11023;48.274;7.794;2022-09-13T09:58:40;24.10;99.90
21722;DHT22;11023;48.274;7.794;2022-09-13T10:01:30;24.30;99.90
21722;DHT22;11023;48.274;7.794;2022-09-13T10:04:01;24.40;99.90
21722;DHT22;11023;48.274;7.794;2022-09-13T10:06:28;24.50;99.90
21722;DHT22;11023;48.274;7.794;2022-09-13T10:09:04;24.50;99.90
21722;DHT22;11023;48.274;7.794;2022-09-13T10:11:52;24.50;99.90
21722;DHT22;11023;48.274;7.794;2022-09-13T10:14:41;24.60;99.90
21722;DHT22;11023;48.274;7.794;2022-09-13T10:17:42;24.70;99.90
21722;DHT22;11023;48.274;7.794;2022-09-13T10:20:24;24.90;99.90
21722;DHT22;11023;48.274;7.794;2022-09-13T10:25:36;25.00;99.90
21722;DHT22;11023;48.274;7.794;2022-09-13T10:28:04;25.10;99.90
21722;DHT22;11023;48.274;7.794;2022-09-13T10:30:53;25.20;99.90
21722;DHT22;11023;48.274;7.794;2022-09-13T10:33:41;25.40;99.90
21722;DHT22;11023;48.274;7.794;2022-09-13T10:36:18;25.40;99.90
21722;DHT22;11023;48.274;7.794;2022-09-13T10:39:05;25.60;99.90
21722;DHT22;11023;48.274;7.794;2022-09-13T10:41:34;25.60;99.90
21722;DHT22;11023;48.274;7.794;2022-09-13T10:44:06;25.70;99.90
21722;DHT22;11023;48.274;7.794;2022-09-13T10:46:47;25.70;99.90
21722;DHT22;11023;48.274;7.794;2022-09-13T10:54:48;26.10;99.90
21722;DHT22;11023;48.274;7.794;2022-09-13T10:57:35;26.10;99.90
21722;DHT22;11023;48.274;7.794;2022-09-13T11:00:04;26.10;99.90
21722;DHT22;11023;48.274;7.794;2022-09-13T11:05:57;26.30;99.90
21722;DHT22;11023;48.274;7.794;2022-09-13T11:08:29;26.30;99.90
21722;DHT22;11023;48.274;7.794;2022-09-13T11:13:29;26.60;99.90
21722;DHT22;11023;48.274;7.794;2022-09-13T11:16:25;26.60;99.90
21722;DHT22;11023;48.274;7.794;2022-09-13T11:19:05;26.60;99.90
21722;DHT22;11023;48.274;7.794;2022-09-13T11:22:03;26.70;99.90
21722;DHT22;11023;48.274;7.794;2022-09-13T11:25:02;26.60;99.90
21722;DHT22;11023;48.274;7.794;2022-09-13T11:38:57;27.20;99.90
21722;DHT22;11023;48.274;7.794;2022-09-13T11:46:58;27.10;99.90
21722;DHT22;11023;48.274;7.794;2022-09-13T11:52:45;27.00;99.90
21722;DHT22;11023;48.274;7.794;2022-09-13T11:55:34;27.00;99.90
21722;DHT22;11023;48.274;7.794;2022-09-13T11:58:09;27.00;99.90
21722;DHT22;11023;48.274;7.794;2022-09-13T12:00:43;27.10;99.90
21722;DHT22;11023;48.274;7.794;2022-09-13T12:03:18;27.20;99.90
21722;DHT22;11023;48.274;7.794;2022-09-13T12:05:52;27.30;99.90
21722;DHT22;11023;48.274;7.794;2022-09-13T12:08:23;27.40;99.90
21722;DHT22;11023;48.274;7.794;2022-09-13T12:11:09;27.50;99.90
21722;DHT22;11023;48.274;7.794;2022-09-13T12:13:52;27.50;99.90
21722;DHT22;11023;48.274;7.794;2022-09-13T12:16:24;27.60;99.90
21722;DHT22;11023;48.274;7.794;2022-09-13T12:18:54;27.60;99.90
21722;DHT22;11023;48.274;7.794;2022-09-13T12:21:29;27.60;99.90
21722;DHT22;11023;48.274;7.794;2022-09-13T12:24:02;27.70;99.90
21722;DHT22;11023;48.274;7.794;2022-09-13T12:29:17;27.90;99.90
21722;DHT22;11023;48.274;7.794;2022-09-13T12:31:44;28.00;99.90
21722;DHT22;11023;48.274;7.794;2022-09-13T12:34:27;28.00;99.90
21722;DHT22;11023;48.274;7.794;2022-09-13T12:40:15;28.00;99.90
21722;DHT22;11023;48.274;7.794;2022-09-13T12:42:55;28.10;99.90
21722;DHT22;11023;48.274;7.794;2022-09-13T12:56:39;28.60;99.90
21722;DHT22;11023;48.274;7.794;2022-09-13T13:01:53;28.80;99.90
21722;DHT22;11023;48.274;7.794;2022-09-13T13:04:29;28.70;99.90
21722;DHT22;11023;48.274;7.794;2022-09-13T13:07:15;28.80;99.90
21722;DHT22;11023;48.274;7.794;2022-09-13T13:09:44;28.90;99.90
21722;DHT22;11023;48.274;7.794;2022-09-13T13:12:38;28.80;99.90
21722;DHT22;11023;48.274;7.794;2022-09-13T13:17:55;29.10;99.90
21722;DHT22;11023;48.274;7.794;2022-09-13T13:23:33;29.40;99.90
21722;DHT22;11023;48.274;7.794;2022-09-13T13:34:45;29.90;99.90
21722;DHT22;11023;48.274;7.794;2022-09-13T13:36:47;30.10;99.90
21722;DHT22;11023;48.274;7.794;2022-09-13T13:46:50;29.90;99.90
21722;DHT22;11023;48.274;7.794;2022-09-13T13:57:35;30.50;99.90
21722;DHT22;11023;48.274;7.794;2022-09-13T14:00:20;30.70;99.90
21722;DHT22;11023;48.274;7.794;2022-09-13T14:22:21;31.10;99.90
21722;DHT22;11023;48.274;7.794;2022-09-13T14:24:51;31.00;99.90
21722;DHT22;11023;48.274;7.794;2022-09-13T14:27:27;31.10;99.90
21722;DHT22;11023;48.274;7.794;2022-09-13T14:30:00;30.90;99.90
21722;DHT22;11023;48.274;7.794;2022-09-13T14:32:31;31.00;99.90
21722;DHT22;11023;48.274;7.794;2022-09-13T14:35:06;31.10;99.90
21722;DHT22;11023;48.274;7.794;2022-09-13T14:37:34;31.20;99.90
21722;DHT22;11023;48.274;7.794;2022-09-13T14:42:44;31.30;99.90
21722;DHT22;11023;48.274;7.794;2022-09-13T14:45:15;31.20;99.90
21722;DHT22;11023;48.274;7.794;2022-09-13T14:48:37;31.30;99.90
21722;DHT22;11023;48.274;7.794;2022-09-13T14:53:42;31.50;99.90
21722;DHT22;11023;48.274;7.794;2022-09-13T14:56:56;31.60;99.90
21722;DHT22;11023;48.274;7.794;2022-09-13T14:59:05;31.60;99.90
21722;DHT22;11023;48.274;7.794;2022-09-13T15:01:36;31.50;99.90
21722;DHT22;11023;48.274;7.794;2022-09-13T15:04:03;31.40;99.90
21722;DHT22;11023;48.274;7.794;2022-09-13T15:06:35;31.30;99.90
21722;DHT22;11023;48.274;7.794;2022-09-13T15:11:37;31.20;99.90
21722;DHT22;11023;48.274;7.794;2022-09-13T15:14:26;31.20;99.90
21722;DHT22;11023;48.274;7.794;2022-09-13T15:16:58;31.10;99.90
21722;DHT22;11023;48.274;7.794;2022-09-13T15:19:42;31.00;99.90
21722;DHT22;11023;48.274;7.794;2022-09-13T15:22:26;31.10;99.90
21722;DHT22;11023;48.274;7.794;2022-09-13T15:24:55;31.10;99.90
21722;DHT22;11023;48.274;7.794;2022-09-13T15:27:42;31.00;99.90
21722;DHT22;11023;48.274;7.794;2022-09-13T15:30:30;31.00;99.90
21722;DHT22;11023;48.274;7.794;2022-09-13T15:33:32;30.90;99.90
21722;DHT22;11023;48.274;7.794;2022-09-13T15:39:21;30.90;99.90
21722;DHT22;11023;48.274;7.794;2022-09-13T15:41:55;31.10;99.90
21722;DHT22;11023;48.274;7.794;2022-09-13T15:44:21;31.10;99.90
21722;DHT22;11023;48.274;7.794;2022-09-13T15:46:50;31.30;99.90
21722;DHT22;11023;48.274;7.794;2022-09-13T15:49:21;31.60;99.90
21722;DHT22;11023;48.274;7.794;2022-09-13T15:51:47;31.60;99.90
21722;DHT22;11023;48.274;7.794;2022-09-13T15:54:17;31.60;99.90
21722;DHT22;11023;48.274;7.794;2022-09-13T15:56:46;31.60;99.90
21722;DHT22;11023;48.274;7.794;2022-09-13T15:59:17;31.40;99.90
21722;DHT22;11023;48.274;7.794;2022-09-13T16:01:44;31.40;99.90
21722;DHT22;11023;48.274;7.794;2022-09-13T16:04:12;31.30;99.90
21722;DHT22;11023;48.274;7.794;2022-09-13T16:06:38;31.10;99.90
21722;DHT22;11023;48.274;7.794;2022-09-13T16:09:36;30.90;99.90
21722;DHT22;11023;48.274;7.794;2022-09-13T16:12:03;30.90;99.90
21722;DHT22;11023;48.274;7.794;2022-09-13T16:14:29;30.90;99.90
21722;DHT22;11023;48.274;7.794;2022-09-13T16:16:54;30.80;99.90
21722;DHT22;11023;48.274;7.794;2022-09-13T16:19:22;30.70;99.90
21722;DHT22;11023;48.274;7.794;2022-09-13T16:21:49;30.50;99.90
21722;DHT22;11023;48.274;7.794;2022-09-13T16:24:15;30.40;99.90
21722;DHT22;11023;48.274;7.794;2022-09-13T16:26:42;30.30;99.90
21722;DHT22;11023;48.274;7.794;2022-09-13T16:29:10;30.10;99.90
21722;DHT22;11023;48.274;7.794;2022-09-13T16:31:35;30.00;99.90
21722;DHT22;11023;48.274;7.794;2022-09-13T16:34:01;29.80;99.90
21722;DHT22;11023;48.274;7.794;2022-09-13T16:36:27;29.60;99.90
21722;DHT22;11023;48.274;7.794;2022-09-13T16:38:57;29.60;99.90
21722;DHT22;11023;48.274;7.794;2022-09-13T16:41:23;29.50;99.90
21722;DHT22;11023;48.274;7.794;2022-09-13T16:43:49;29.40;99.90
21722;DHT22;11023;48.274;7.794;2022-09-13T16:46:15;29.20;99.90
21722;DHT22;11023;48.274;7.794;2022-09-13T16:48:42;29.20;99.90
21722;DHT22;11023;48.274;7.794;2022-09-13T16:51:09;29.10;99.90
21722;DHT22;11023;48.274;7.794;2022-09-13T16:53:38;29.00;99.90
21722;DHT22;11023;48.274;7.794;2022-09-13T16:56:13;28.90;99.90
21722;DHT22;11023;48.274;7.794;2022-09-13T16:58:41;28.80;99.90
21722;DHT22;11023;48.274;7.794;2022-09-13T17:01:09;28.70;99.90
21722;DHT22;11023;48.274;7.794;2022-09-13T17:03:36;28.60;99.90
21722;DHT22;11023;48.274;7.794;2022-09-13T17:06:05;28.50;99.90
21722;DHT22;11023;48.274;7.794;2022-09-13T17:08:31;28.40;99.90
21722;DHT22;11023;48.274;7.794;2022-09-13T17:10:58;28.40;99.90
21722;DHT22;11023;48.274;7.794;2022-09-13T17:13:24;28.30;99.90
21722;DHT22;11023;48.274;7.794;2022-09-13T17:15:50;28.20;99.90
21722;DHT22;11023;48.274;7.794;2022-09-13T17:18:16;28.10;99.90
21722;DHT22;11023;48.274;7.794;2022-09-13T17:20:44;28.00;99.90
21722;DHT22;11023;48.274;7.794;2022-09-13T17:23:10;27.90;99.90
21722;DHT22;11023;48.274;7.794;2022-09-13T17:25:35;27.90;99.90
21722;DHT22;11023;48.274;7.794;2022-09-13T17:28:01;27.90;99.90
21722;DHT22;11023;48.274;7.794;2022-09-13T17:30:27;27.80;99.90
21722;DHT22;11023;48.274;7.794;2022-09-13T17:32:52;27.70;99.90
21722;DHT22;11023;48.274;7.794;2022-09-13T17:35:18;27.50;99.90
21722;DHT22;11023;48.274;7.794;2022-09-13T17:37:45;27.60;99.90
21722;DHT22;11023;48.274;7.794;2022-09-13T17:40:11;27.40;99.90
21722;DHT22;11023;48.274;7.794;2022-09-13T17:42:37;27.30;99.90
21722;DHT22;11023;48.274;7.794;2022-09-13T17:45:02;27.20;99.90
21722;DHT22;11023;48.274;7.794;2022-09-13T17:47:28;27.10;99.90
21722;DHT22;11023;48.274;7.794;2022-09-13T17:49:54;27.00;99.90
21722;DHT22;11023;48.274;7.794;2022-09-13T17:52:20;27.00;99.90
21722;DHT22;11023;48.274;7.794;2022-09-13T17:54:45;26.90;99.90
21722;DHT22;11023;48.274;7.794;2022-09-13T17:57:11;26.90;99.90
21722;DHT22;11023;48.274;7.794;2022-09-13T17:59:39;26.80;99.90
21722;DHT22;11023;48.274;7.794;2022-09-13T18:02:05;26.70;99.90
21722;DHT22;11023;48.274;7.794;2022-09-13T18:04:31;26.60;99.90
21722;DHT22;11023;48.274;7.794;2022-09-13T18:06:57;26.50;99.90
21722;DHT22;11023;48.274;7.794;2022-09-13T18:09:23;26.50;99.90
21722;DHT22;11023;48.274;7.794;2022-09-13T18:11:49;26.40;99.90
21722;DHT22;11023;48.274;7.794;2022-09-13T18:14:16;26.40;99.90
21722;DHT22;11023;48.274;7.794;2022-09-13T18:16:42;26.30;99.90
21722;DHT22;11023;48.274;7.794;2022-09-13T18:19:09;26.20;99.90
21722;DHT22;11023;48.274;7.794;2022-09-13T18:21:34;26.20;99.90
21722;DHT22;11023;48.274;7.794;2022-09-13T18:24:00;26.10;99.90
21722;DHT22;11023;48.274;7.794;2022-09-13T18:26:28;26.10;99.90
21722;DHT22;11023;48.274;7.794;2022-09-13T18:28:55;26.00;99.90
21722;DHT22;11023;48.274;7.794;2022-09-13T18:31:22;26.00;99.90
21722;DHT22;11023;48.274;7.794;2022-09-13T18:33:56;25.90;99.90
21722;DHT22;11023;48.274;7.794;2022-09-13T18:36:23;25.80;99.90
21722;DHT22;11023;48.274;7.794;2022-09-13T18:38:49;25.70;99.90
21722;DHT22;11023;48.274;7.794;2022-09-13T18:41:18;25.60;99.90
21722;DHT22;11023;48.274;7.794;2022-09-13T18:43:45;25.50;99.90
21722;DHT22;11023;48.274;7.794;2022-09-13T18:46:14;25.50;99.90
21722;DHT22;11023;48.274;7.794;2022-09-13T18:48:42;25.40;99.90
21722;DHT22;11023;48.274;7.794;2022-09-13T18:51:10;25.30;99.90
21722;DHT22;11023;48.274;7.794;2022-09-13T18:53:36;25.20;99.90
21722;DHT22;11023;48.274;7.794;2022-09-13T18:56:07;25.20;99.90